sensor_id;sensor_type;location;lat;lon;timestamp;temperature;humidity
9049;DHT22;4559;47.252;9.592;2022-08-27T00:00:07;18.90;99.90
9049;DHT22;4559;47.252;9.592;2022-08-27T00:02:35;18.90;99.90
9049;DHT22;4559;47.252;9.592;2022-08-27T00:05:02;18.90;99.90
9049;DHT22;4559;47.252;9.592;2022-08-27T00:07:28;19.00;99.90
9049;DHT22;4559;47.252;9.592;2022-08-27T00:09:53;18.90;99.90
9049;DHT22;4559;47.252;9.592;2022-08-27T00:12:19;18.90;99.90
9049;DHT22;4559;47.252;9.592;2022-08-27T00:14:45;19.00;99.90
9049;DHT22;4559;47.252;9.592;2022-08-27T00:17:10;18.90;99.90
9049;DHT22;4559;47.252;9.592;2022-08-27T00:19:36;18.90;99.90
9049;DHT22;4559;47.252;9.592;2022-08-27T00:22:04;18.90;99.90
9049;DHT22;4559;47.252;9.592;2022-08-27T00:24:30;18.90;99.90
9049;DHT22;4559;47.252;9.592;2022-08-27T00:26:56;18.90;99.90
9049;DHT22;4559;47.252;9.592;2022-08-27T00:29:21;18.80;99.90
9049;DHT22;4559;47.252;9.592;2022-08-27T00:31:47;18.80;99.90
9049;DHT22;4559;47.252;9.592;2022-08-27T00:34:13;18.80;99.90
9049;DHT22;4559;47.252;9.592;2022-08-27T00:36:39;18.80;99.90
9049;DHT22;4559;47.252;9.592;2022-08-27T00:39:05;18.80;99.90
9049;DHT22;4559;47.252;9.592;2022-08-27T00:41:31;18.70;99.90
9049;DHT22;4559;47.252;9.592;2022-08-27T00:43:59;18.70;99.90
9049;DHT22;4559;47.252;9.592;2022-08-27T00:49:42;18.70;99.90
9049;DHT22;4559;47.252;9.592;2022-08-27T00:54:56;18.70;99.90
9049;DHT22;4559;47.252;9.592;2022-08-27T00:57:22;18.70;99.90
9049;DHT22;4559;47.252;9.592;2022-08-27T00:59:48;18.70;99.90
9049;DHT22;4559;47.252;9.592;2022-08-27T01:02:14;18.70;99.90
9049;DHT22;4559;47.252;9.592;2022-08-27T01:05:03;18.70;99.90
9049;DHT22;4559;47.252;9.592;2022-08-27T01:07:31;18.70;99.90
9049;DHT22;4559;47.252;9.592;2022-08-27T01:09:59;18.60;99.90
9049;DHT22;4559;47.252;9.592;2022-08-27T01:12:27;18.70;99.90
9049;DHT22;4559;47.252;9.592;2022-08-27T01:14:54;18.60;99.90
9049;DHT22;4559;47.252;9.592;2022-08-27T01:17:21;18.60;99.90
9049;DHT22;4559;47.252;9.592;2022-08-27T01:20:00;18.70;99.90
9049;DHT22;4559;47.252;9.592;2022-08-27T01:23:05;18.70;99.90
9049;DHT22;4559;47.252;9.592;2022-08-27T01:25:34;18.60;99.90
9049;DHT22;4559;47.252;9.592;2022-08-27T01:28:02;18.70;99.90
9049;DHT22;4559;47.252;9.592;2022-08-27T01:30:28;18.70;99.90
9049;DHT22;4559;47.252;9.592;2022-08-27T01:32:55;18.70;99.90
9049;DHT22;4559;47.252;9.592;2022-08-27T01:35:22;18.70;99.90
9049;DHT22;4559;47.252;9.592;2022-08-27T01:37:50;18.70;99.90
9049;DHT22;4559;47.252;9.592;2022-08-27T01:40:18;18.80;99.90
9049;DHT22;4559;47.252;9.592;2022-08-27T01:42:52;18.80;99.90
9049;DHT22;4559;47.252;9.592;2022-08-27T01:45:42;18.80;99.90
9049;DHT22;4559;47.252;9.592;2022-08-27T01:48:09;18.70;99.90
9049;DHT22;4559;47.252;9.592;2022-08-27T01:50:37;18.80;99.90
9049;DHT22;4559;47.252;9.592;2022-08-27T01:53:08;18.70;99.90
9049;DHT22;4559;47.252;9.592;2022-08-27T01:55:36;18.80;99.90
9049;DHT22;4559;47.252;9.592;2022-08-27T01:58:03;18.70;99.90
9049;DHT22;4559;47.252;9.592;2022-08-27T02:00:32;18.70;99.90
9049;DHT22;4559;47.252;9.592;2022-08-27T02:02:59;18.70;99.90
9049;DHT22;4559;47.252;9.592;2022-08-27T02:05:26;18.70;99.90
9049;DHT22;4559;47.252;9.592;2022-08-27T02:07:52;18.70;99.90
9049;DHT22;4559;47.252;9.592;2022-08-27T02:10:22;18.70;99.90
9049;DHT22;4559;47.252;9.592;2022-08-27T02:12:48;18.70;99.90
9049;DHT22;4559;47.252;9.592;2022-08-27T02:15:14;18.70;99.90
9049;DHT22;4559;47.252;9.592;2022-08-27T02:17:40;18.60;99.90
9049;DHT22;4559;47.252;9.592;2022-08-27T02:20:08;18.70;99.90
9049;DHT22;4559;47.252;9.592;2022-08-27T02:22:35;18.60;99.90
9049;DHT22;4559;47.252;9.592;2022-08-27T02:25:01;18.70;99.90
9049;DHT22;4559;47.252;9.592;2022-08-27T02:27:27;18.60;99.90
9049;DHT22;4559;47.252;9.592;2022-08-27T02:29:53;18.70;99.90
9049;DHT22;4559;47.252;9.592;2022-08-27T02:32:20;18.60;99.90
9049;DHT22;4559;47.252;9.592;2022-08-27T02:34:47;18.60;99.90
9049;DHT22;4559;47.252;9.592;2022-08-27T02:37:13;18.60;99.90
9049;DHT22;4559;47.252;9.592;2022-08-27T02:39:39;18.60;99.90
9049;DHT22;4559;47.252;9.592;2022-08-27T02:42:04;18.60;99.90
9049;DHT22;4559;47.252;9.592;2022-08-27T02:44:30;18.60;99.90
9049;DHT22;4559;47.252;9.592;2022-08-27T02:46:57;18.60;99.90
9049;DHT22;4559;47.252;9.592;2022-08-27T02:49:23;18.60;99.90
9049;DHT22;4559;47.252;9.592;2022-08-27T02:51:55;18.60;99.90
9049;DHT22;4559;47.252;9.592;2022-08-27T02:54:22;18.60;99.90
9049;DHT22;4559;47.252;9.592;2022-08-27T02:56:49;18.60;99.90
9049;DHT22;4559;47.252;9.592;2022-08-27T02:59:16;18.60;99.90
9049;DHT22;4559;47.252;9.592;2022-08-27T03:01:41;18.60;99.90
9049;DHT22;4559;47.252;9.592;2022-08-27T03:04:07;18.60;99.90
9049;DHT22;4559;47.252;9.592;2022-08-27T03:06:33;18.50;99.90
9049;DHT22;4559;47.252;9.592;2022-08-27T03:08:58;18.50;99.90
9049;DHT22;4559;47.252;9.592;2022-08-27T03:11:25;18.50;99.90
9049;DHT22;4559;47.252;9.592;2022-08-27T03:13:51;18.50;99.90
9049;DHT22;4559;47.252;9.592;2022-08-27T03:16:16;18.50;99.90
9049;DHT22;4559;47.252;9.592;2022-08-27T03:18:42;18.50;99.90
9049;DHT22;4559;47.252;9.592;2022-08-27T03:21:08;18.50;99.90
9049;DHT22;4559;47.252;9.592;2022-08-27T03:23:34;18.50;99.90
9049;DHT22;4559;47.252;9.592;2022-08-27T03:26:02;18.60;99.90
9049;DHT22;4559;47.252;9.592;2022-08-27T03:28:31;18.60;99.90
9049;DHT22;4559;47.252;9.592;2022-08-27T03:31:00;18.60;99.90
9049;DHT22;4559;47.252;9.592;2022-08-27T03:33:28;18.60;99.90
9049;DHT22;4559;47.252;9.592;2022-08-27T03:35:55;18.60;99.90
9049;DHT22;4559;47.252;9.592;2022-08-27T03:38:21;18.60;99.90
9049;DHT22;4559;47.252;9.592;2022-08-27T03:40:47;18.60;99.90
9049;DHT22;4559;47.252;9.592;2022-08-27T03:43:14;18.60;99.90
9049;DHT22;4559;47.252;9.592;2022-08-27T03:45:42;18.60;99.90
9049;DHT22;4559;47.252;9.592;2022-08-27T03:48:09;18.60;99.90
9049;DHT22;4559;47.252;9.592;2022-08-27T03:50:37;18.70;99.90
9049;DHT22;4559;47.252;9.592;2022-08-27T03:53:03;18.70;99.90
9049;DHT22;4559;47.252;9.592;2022-08-27T03:55:29;18.70;99.90
9049;DHT22;4559;47.252;9.592;2022-08-27T03:57:54;18.60;99.90
9049;DHT22;4559;47.252;9.592;2022-08-27T04:00:21;18.60;99.90
9049;DHT22;4559;47.252;9.592;2022-08-27T04:02:49;18.60;99.90
9049;DHT22;4559;47.252;9.592;2022-08-27T04:05:15;18.60;99.90
9049;DHT22;4559;47.252;9.592;2022-08-27T04:07:42;18.60;99.90
9049;DHT22;4559;47.252;9.592;2022-08-27T04:10:09;18.60;99.90
9049;DHT22;4559;47.252;9.592;2022-08-27T04:12:35;18.60;99.90
9049;DHT22;4559;47.252;9.592;2022-08-27T04:15:02;18.60;99.90
9049;DHT22;4559;47.252;9.592;2022-08-27T04:17:28;18.60;99.90
9049;DHT22;4559;47.252;9.592;2022-08-27T04:19:53;18.60;99.90
9049;DHT22;4559;47.252;9.592;2022-08-27T04:22:19;18.60;99.90
9049;DHT22;4559;47.252;9.592;2022-08-27T04:24:46;18.60;99.90
9049;DHT22;4559;47.252;9.592;2022-08-27T04:27:12;18.60;99.90
9049;DHT22;4559;47.252;9.592;2022-08-27T04:29:39;18.60;99.90
9049;DHT22;4559;47.252;9.592;2022-08-27T04:32:05;18.50;99.90
9049;DHT22;4559;47.252;9.592;2022-08-27T04:34:30;18.60;99.90
9049;DHT22;4559;47.252;9.592;2022-08-27T04:36:58;18.60;99.90
9049;DHT22;4559;47.252;9.592;2022-08-27T04:39:25;18.60;99.90
9049;DHT22;4559;47.252;9.592;2022-08-27T04:41:53;18.60;99.90
9049;DHT22;4559;47.252;9.592;2022-08-27T04:44:20;18.60;99.90
9049;DHT22;4559;47.252;9.592;2022-08-27T04:46:47;18.60;99.90
9049;DHT22;4559;47.252;9.592;2022-08-27T04:49:13;18.60;99.90
9049;DHT22;4559;47.252;9.592;2022-08-27T04:51:40;18.60;99.90
9049;DHT22;4559;47.252;9.592;2022-08-27T04:54:06;18.60;99.90
9049;DHT22;4559;47.252;9.592;2022-08-27T04:56:33;18.60;99.90
9049;DHT22;4559;47.252;9.592;2022-08-27T04:59:00;18.60;99.90
9049;DHT22;4559;47.252;9.592;2022-08-27T05:01:28;18.60;99.90
9049;DHT22;4559;47.252;9.592;2022-08-27T05:03:54;18.70;99.90
9049;DHT22;4559;47.252;9.592;2022-08-27T05:06:21;18.70;99.90
9049;DHT22;4559;47.252;9.592;2022-08-27T05:08:48;18.70;99.90
9049;DHT22;4559;47.252;9.592;2022-08-27T05:11:16;18.80;99.90
9049;DHT22;4559;47.252;9.592;2022-08-27T05:13:42;18.80;99.90
9049;DHT22;4559;47.252;9.592;2022-08-27T05:16:10;18.80;99.90
9049;DHT22;4559;47.252;9.592;2022-08-27T05:18:37;18.80;99.90
9049;DHT22;4559;47.252;9.592;2022-08-27T05:21:04;18.80;99.90
9049;DHT22;4559;47.252;9.592;2022-08-27T05:23:29;18.90;99.90
9049;DHT22;4559;47.252;9.592;2022-08-27T05:25:57;18.90;99.90
9049;DHT22;4559;47.252;9.592;2022-08-27T05:28:25;18.90;99.90
9049;DHT22;4559;47.252;9.592;2022-08-27T05:30:53;18.90;99.90
9049;DHT22;4559;47.252;9.592;2022-08-27T05:33:22;18.90;99.90
9049;DHT22;4559;47.252;9.592;2022-08-27T05:35:54;19.00;99.90
9049;DHT22;4559;47.252;9.592;2022-08-27T05:38:20;19.00;99.90
9049;DHT22;4559;47.252;9.592;2022-08-27T05:40:46;19.00;99.90
9049;DHT22;4559;47.252;9.592;2022-08-27T05:43:14;19.10;99.90
9049;DHT22;4559;47.252;9.592;2022-08-27T05:45:41;19.10;99.90
9049;DHT22;4559;47.252;9.592;2022-08-27T05:48:08;19.20;99.90
9049;DHT22;4559;47.252;9.592;2022-08-27T05:50:38;19.20;99.90
9049;DHT22;4559;47.252;9.592;2022-08-27T05:53:06;19.30;99.90
9049;DHT22;4559;47.252;9.592;2022-08-27T05:55:43;19.30;99.90
9049;DHT22;4559;47.252;9.592;2022-08-27T05:58:10;19.30;99.90
9049;DHT22;4559;47.252;9.592;2022-08-27T06:00:56;19.40;99.90
9049;DHT22;4559;47.252;9.592;2022-08-27T06:03:35;19.40;99.90
9049;DHT22;4559;47.252;9.592;2022-08-27T06:06:03;19.50;99.90
9049;DHT22;4559;47.252;9.592;2022-08-27T06:08:29;19.40;99.90
9049;DHT22;4559;47.252;9.592;2022-08-27T06:10:56;19.50;99.90
9049;DHT22;4559;47.252;9.592;2022-08-27T06:13:22;19.40;99.90
9049;DHT22;4559;47.252;9.592;2022-08-27T06:15:48;19.50;99.90
9049;DHT22;4559;47.252;9.592;2022-08-27T06:18:14;19.40;99.90
9049;DHT22;4559;47.252;9.592;2022-08-27T06:20:40;19.40;99.90
9049;DHT22;4559;47.252;9.592;2022-08-27T06:23:06;19.50;99.90
9049;DHT22;4559;47.252;9.592;2022-08-27T06:25:31;19.40;99.90
9049;DHT22;4559;47.252;9.592;2022-08-27T06:27:58;19.40;99.90
9049;DHT22;4559;47.252;9.592;2022-08-27T06:30:24;19.40;99.90
9049;DHT22;4559;47.252;9.592;2022-08-27T06:32:50;19.40;99.90
9049;DHT22;4559;47.252;9.592;2022-08-27T06:35:17;19.40;99.90
9049;DHT22;4559;47.252;9.592;2022-08-27T06:37:43;19.40;99.90
9049;DHT22;4559;47.252;9.592;2022-08-27T06:40:09;19.40;99.90
9049;DHT22;4559;47.252;9.592;2022-08-27T06:42:36;19.40;99.90
9049;DHT22;4559;47.252;9.592;2022-08-27T06:45:03;19.40;99.90
9049;DHT22;4559;47.252;9.592;2022-08-27T06:47:32;19.40;99.90
9049;DHT22;4559;47.252;9.592;2022-08-27T06:49:58;19.40;99.90
9049;DHT22;4559;47.252;9.592;2022-08-27T06:52:24;19.40;99.90
9049;DHT22;4559;47.252;9.592;2022-08-27T06:54:50;19.40;99.90
9049;DHT22;4559;47.252;9.592;2022-08-27T06:57:16;19.50;99.90
9049;DHT22;4559;47.252;9.592;2022-08-27T06:59:42;19.50;99.90
9049;DHT22;4559;47.252;9.592;2022-08-27T07:02:09;19.50;99.90
9049;DHT22;4559;47.252;9.592;2022-08-27T07:04:35;19.60;99.90
9049;DHT22;4559;47.252;9.592;2022-08-27T07:07:02;19.60;99.90
9049;DHT22;4559;47.252;9.592;2022-08-27T07:09:29;19.70;99.90
9049;DHT22;4559;47.252;9.592;2022-08-27T07:11:56;19.80;99.90
9049;DHT22;4559;47.252;9.592;2022-08-27T07:14:22;19.80;99.90
9049;DHT22;4559;47.252;9.592;2022-08-27T07:16:48;19.90;99.90
9049;DHT22;4559;47.252;9.592;2022-08-27T07:19:15;19.90;99.90
9049;DHT22;4559;47.252;9.592;2022-08-27T07:21:41;20.00;99.90
9049;DHT22;4559;47.252;9.592;2022-08-27T07:24:07;20.10;99.90
9049;DHT22;4559;47.252;9.592;2022-08-27T07:26:37;20.20;99.90
9049;DHT22;4559;47.252;9.592;2022-08-27T07:29:07;20.20;99.90
9049;DHT22;4559;47.252;9.592;2022-08-27T07:31:34;20.30;99.90
9049;DHT22;4559;47.252;9.592;2022-08-27T07:34:04;20.40;99.90
9049;DHT22;4559;47.252;9.592;2022-08-27T07:36:31;20.40;99.90
9049;DHT22;4559;47.252;9.592;2022-08-27T07:38:57;20.50;99.90
9049;DHT22;4559;47.252;9.592;2022-08-27T07:41:23;20.60;99.90
9049;DHT22;4559;47.252;9.592;2022-08-27T07:43:49;20.70;99.90
9049;DHT22;4559;47.252;9.592;2022-08-27T07:46:33;20.80;99.90
9049;DHT22;4559;47.252;9.592;2022-08-27T07:48:58;20.90;99.90
9049;DHT22;4559;47.252;9.592;2022-08-27T07:51:26;21.00;99.90
9049;DHT22;4559;47.252;9.592;2022-08-27T07:53:52;21.00;99.90
9049;DHT22;4559;47.252;9.592;2022-08-27T07:56:19;21.00;99.90
9049;DHT22;4559;47.252;9.592;2022-08-27T07:58:45;21.10;99.90
9049;DHT22;4559;47.252;9.592;2022-08-27T08:01:12;21.10;99.90
9049;DHT22;4559;47.252;9.592;2022-08-27T08:03:38;21.10;99.90
9049;DHT22;4559;47.252;9.592;2022-08-27T08:06:10;21.20;99.90
9049;DHT22;4559;47.252;9.592;2022-08-27T08:08:37;21.20;99.90
9049;DHT22;4559;47.252;9.592;2022-08-27T08:11:09;21.30;99.90
9049;DHT22;4559;47.252;9.592;2022-08-27T08:13:36;21.40;99.90
9049;DHT22;4559;47.252;9.592;2022-08-27T08:16:02;21.40;99.90
9049;DHT22;4559;47.252;9.592;2022-08-27T08:18:27;21.50;99.90
9049;DHT22;4559;47.252;9.592;2022-08-27T08:20:59;21.70;99.90
9049;DHT22;4559;47.252;9.592;2022-08-27T08:23:25;21.80;99.90
9049;DHT22;4559;47.252;9.592;2022-08-27T08:25:51;21.90;99.90
9049;DHT22;4559;47.252;9.592;2022-08-27T08:28:17;22.00;99.90
9049;DHT22;4559;47.252;9.592;2022-08-27T08:30:42;22.10;99.90
9049;DHT22;4559;47.252;9.592;2022-08-27T08:33:08;22.20;99.90
9049;DHT22;4559;47.252;9.592;2022-08-27T08:35:37;22.30;99.90
9049;DHT22;4559;47.252;9.592;2022-08-27T08:38:03;22.40;99.90
9049;DHT22;4559;47.252;9.592;2022-08-27T08:40:35;22.50;99.90
9049;DHT22;4559;47.252;9.592;2022-08-27T08:43:02;22.60;99.90
9049;DHT22;4559;47.252;9.592;2022-08-27T08:45:33;22.80;99.90
9049;DHT22;4559;47.252;9.592;2022-08-27T08:48:10;22.90;99.90
9049;DHT22;4559;47.252;9.592;2022-08-27T08:50:54;23.00;99.90
9049;DHT22;4559;47.252;9.592;2022-08-27T08:53:52;23.10;99.90
9049;DHT22;4559;47.252;9.592;2022-08-27T08:56:29;23.20;99.90
9049;DHT22;4559;47.252;9.592;2022-08-27T08:59:11;23.30;99.90
9049;DHT22;4559;47.252;9.592;2022-08-27T09:01:39;23.50;99.90
9049;DHT22;4559;47.252;9.592;2022-08-27T09:04:09;23.60;99.90
9049;DHT22;4559;47.252;9.592;2022-08-27T09:12:21;23.90;99.90
9049;DHT22;4559;47.252;9.592;2022-08-27T09:17:35;24.00;99.90
9049;DHT22;4559;47.252;9.592;2022-08-27T09:20:02;24.40;99.90
9049;DHT22;4559;47.252;9.592;2022-08-27T09:23:10;24.60;99.90
9049;DHT22;4559;47.252;9.592;2022-08-27T09:25:40;25.00;99.90
9049;DHT22;4559;47.252;9.592;2022-08-27T09:28:10;25.20;99.90
9049;DHT22;4559;47.252;9.592;2022-08-27T09:31:02;25.50;99.90
9049;DHT22;4559;47.252;9.592;2022-08-27T09:33:28;25.80;99.90
9049;DHT22;4559;47.252;9.592;2022-08-27T09:35:54;25.80;99.90
9049;DHT22;4559;47.252;9.592;2022-08-27T09:38:29;25.80;99.90
9049;DHT22;4559;47.252;9.592;2022-08-27T09:40:57;25.90;99.90
9049;DHT22;4559;47.252;9.592;2022-08-27T09:43:27;25.80;99.90
9049;DHT22;4559;47.252;9.592;2022-08-27T09:45:55;25.90;99.90
9049;DHT22;4559;47.252;9.592;2022-08-27T09:48:28;25.90;99.90
9049;DHT22;4559;47.252;9.592;2022-08-27T09:53:34;26.10;99.90
9049;DHT22;4559;47.252;9.592;2022-08-27T09:56:07;26.20;99.90
9049;DHT22;4559;47.252;9.592;2022-08-27T09:58:47;26.40;99.90
9049;DHT22;4559;47.252;9.592;2022-08-27T10:01:21;26.40;99.90
9049;DHT22;4559;47.252;9.592;2022-08-27T10:03:47;26.40;99.90
9049;DHT22;4559;47.252;9.592;2022-08-27T10:06:24;26.30;99.90
9049;DHT22;4559;47.252;9.592;2022-08-27T10:08:51;26.20;99.90
9049;DHT22;4559;47.252;9.592;2022-08-27T10:11:28;26.00;99.90
9049;DHT22;4559;47.252;9.592;2022-08-27T10:14:09;25.90;99.90
9049;DHT22;4559;47.252;9.592;2022-08-27T10:17:04;25.70;99.90
9049;DHT22;4559;47.252;9.592;2022-08-27T10:27:49;25.20;99.90
9049;DHT22;4559;47.252;9.592;2022-08-27T10:30:20;25.10;99.90
9049;DHT22;4559;47.252;9.592;2022-08-27T10:35:59;25.00;99.90
9049;DHT22;4559;47.252;9.592;2022-08-27T10:38:36;24.90;99.90
9049;DHT22;4559;47.252;9.592;2022-08-27T10:41:36;24.90;99.90
9049;DHT22;4559;47.252;9.592;2022-08-27T10:52:51;25.20;99.90
9049;DHT22;4559;47.252;9.592;2022-08-27T10:55:32;25.30;99.90
9049;DHT22;4559;47.252;9.592;2022-08-27T11:03:09;25.40;99.90
9049;DHT22;4559;47.252;9.592;2022-08-27T11:05:46;25.40;99.90
9049;DHT22;4559;47.252;9.592;2022-08-27T11:11:05;25.40;99.90
9049;DHT22;4559;47.252;9.592;2022-08-27T11:13:35;25.30;99.90
9049;DHT22;4559;47.252;9.592;2022-08-27T11:16:14;25.30;99.90
9049;DHT22;4559;47.252;9.592;2022-08-27T11:19:02;25.40;99.90
9049;DHT22;4559;47.252;9.592;2022-08-27T11:22:19;25.50;99.90
9049;DHT22;4559;47.252;9.592;2022-08-27T11:24:28;25.50;99.90
9049;DHT22;4559;47.252;9.592;2022-08-27T11:27:00;25.70;99.90
9049;DHT22;4559;47.252;9.592;2022-08-27T11:29:44;25.70;99.90
9049;DHT22;4559;47.252;9.592;2022-08-27T11:43:21;25.80;99.90
9049;DHT22;4559;47.252;9.592;2022-08-27T11:46:04;25.80;99.90
9049;DHT22;4559;47.252;9.592;2022-08-27T11:48:38;25.80;99.90
9049;DHT22;4559;47.252;9.592;2022-08-27T11:51:29;25.80;99.90
9049;DHT22;4559;47.252;9.592;2022-08-27T11:54:08;25.80;99.90
9049;DHT22;4559;47.252;9.592;2022-08-27T11:56:38;25.90;99.90
9049;DHT22;4559;47.252;9.592;2022-08-27T12:01:46;26.20;99.90
9049;DHT22;4559;47.252;9.592;2022-08-27T12:26:56;27.90;99.90
9049;DHT22;4559;47.252;9.592;2022-08-27T12:37:52;28.40;99.60
9049;DHT22;4559;47.252;9.592;2022-08-27T12:40:23;28.40;99.50
9049;DHT22;4559;47.252;9.592;2022-08-27T12:43:09;28.40;99.10
9049;DHT22;4559;47.252;9.592;2022-08-27T12:45:45;28.40;98.80
9049;DHT22;4559;47.252;9.592;2022-08-27T12:48:11;28.50;98.20
9049;DHT22;4559;47.252;9.592;2022-08-27T12:50:37;28.60;98.30
9049;DHT22;4559;47.252;9.592;2022-08-27T12:53:25;28.60;98.60
9049;DHT22;4559;47.252;9.592;2022-08-27T12:56:11;28.50;99.00
9049;DHT22;4559;47.252;9.592;2022-08-27T12:58:40;28.40;98.80
9049;DHT22;4559;47.252;9.592;2022-08-27T13:01:45;28.40;98.20
9049;DHT22;4559;47.252;9.592;2022-08-27T13:04:22;28.20;98.90
9049;DHT22;4559;47.252;9.592;2022-08-27T13:06:48;28.10;98.70
9049;DHT22;4559;47.252;9.592;2022-08-27T13:09:14;27.90;99.10
9049;DHT22;4559;47.252;9.592;2022-08-27T13:11:48;27.80;99.50
9049;DHT22;4559;47.252;9.592;2022-08-27T13:14:20;27.70;99.40
9049;DHT22;4559;47.252;9.592;2022-08-27T13:16:54;27.60;99.60
9049;DHT22;4559;47.252;9.592;2022-08-27T13:19:27;27.60;99.70
9049;DHT22;4559;47.252;9.592;2022-08-27T13:21:54;27.60;99.20
9049;DHT22;4559;47.252;9.592;2022-08-27T13:24:46;27.50;99.10
9049;DHT22;4559;47.252;9.592;2022-08-27T13:27:12;27.30;99.10
9049;DHT22;4559;47.252;9.592;2022-08-27T13:29:39;27.40;99.30
9049;DHT22;4559;47.252;9.592;2022-08-27T13:32:05;27.40;98.80
9049;DHT22;4559;47.252;9.592;2022-08-27T13:34:34;27.40;99.30
9049;DHT22;4559;47.252;9.592;2022-08-27T13:37:03;27.30;99.00
9049;DHT22;4559;47.252;9.592;2022-08-27T13:39:33;27.20;99.10
9049;DHT22;4559;47.252;9.592;2022-08-27T13:42:00;27.00;98.90
9049;DHT22;4559;47.252;9.592;2022-08-27T13:44:31;27.10;99.00
9049;DHT22;4559;47.252;9.592;2022-08-27T13:47:04;27.10;98.60
9049;DHT22;4559;47.252;9.592;2022-08-27T13:49:35;27.00;98.40
9049;DHT22;4559;47.252;9.592;2022-08-27T13:54:47;26.80;99.20
9049;DHT22;4559;47.252;9.592;2022-08-27T13:57:26;26.80;99.50
9049;DHT22;4559;47.252;9.592;2022-08-27T13:59:55;26.70;99.80
9049;DHT22;4559;47.252;9.592;2022-08-27T14:02:25;26.60;99.30
9049;DHT22;4559;47.252;9.592;2022-08-27T14:05:45;26.40;99.30
9049;DHT22;4559;47.252;9.592;2022-08-27T14:08:10;26.30;99.80
9049;DHT22;4559;47.252;9.592;2022-08-27T14:10:40;26.20;99.70
9049;DHT22;4559;47.252;9.592;2022-08-27T14:13:21;26.10;99.50
9049;DHT22;4559;47.252;9.592;2022-08-27T14:15:52;26.00;99.60
9049;DHT22;4559;47.252;9.592;2022-08-27T14:18:32;26.00;99.90
9049;DHT22;4559;47.252;9.592;2022-08-27T14:20:59;26.00;99.90
9049;DHT22;4559;47.252;9.592;2022-08-27T14:23:26;25.80;99.90
9049;DHT22;4559;47.252;9.592;2022-08-27T14:25:55;25.80;99.90
9049;DHT22;4559;47.252;9.592;2022-08-27T14:28:21;25.70;99.90
9049;DHT22;4559;47.252;9.592;2022-08-27T14:30:47;25.60;99.90
9049;DHT22;4559;47.252;9.592;2022-08-27T14:33:12;25.60;99.90
9049;DHT22;4559;47.252;9.592;2022-08-27T14:35:39;25.60;99.90
9049;DHT22;4559;47.252;9.592;2022-08-27T14:38:14;25.50;99.90
9049;DHT22;4559;47.252;9.592;2022-08-27T14:40:42;25.50;99.90
9049;DHT22;4559;47.252;9.592;2022-08-27T14:43:08;25.40;99.90
9049;DHT22;4559;47.252;9.592;2022-08-27T14:45:34;25.40;99.90
9049;DHT22;4559;47.252;9.592;2022-08-27T14:48:03;25.30;99.90
9049;DHT22;4559;47.252;9.592;2022-08-27T14:50:29;25.30;99.90
9049;DHT22;4559;47.252;9.592;2022-08-27T14:52:54;25.30;99.90
9049;DHT22;4559;47.252;9.592;2022-08-27T14:55:20;25.20;99.90
9049;DHT22;4559;47.252;9.592;2022-08-27T14:57:46;25.10;99.90
9049;DHT22;4559;47.252;9.592;2022-08-27T15:00:11;25.10;99.90
9049;DHT22;4559;47.252;9.592;2022-08-27T15:02:42;25.00;99.90
9049;DHT22;4559;47.252;9.592;2022-08-27T15:05:08;25.00;99.90
9049;DHT22;4559;47.252;9.592;2022-08-27T15:07:34;25.00;99.90
9049;DHT22;4559;47.252;9.592;2022-08-27T15:10:00;24.90;99.90
9049;DHT22;4559;47.252;9.592;2022-08-27T15:12:25;24.90;99.90
9049;DHT22;4559;47.252;9.592;2022-08-27T15:14:51;24.80;99.90
9049;DHT22;4559;47.252;9.592;2022-08-27T15:17:17;24.70;99.90
9049;DHT22;4559;47.252;9.592;2022-08-27T15:19:42;24.60;99.90
9049;DHT22;4559;47.252;9.592;2022-08-27T15:22:17;24.60;99.90
9049;DHT22;4559;47.252;9.592;2022-08-27T15:24:47;24.60;99.90
9049;DHT22;4559;47.252;9.592;2022-08-27T15:27:14;24.60;99.90
9049;DHT22;4559;47.252;9.592;2022-08-27T15:29:40;24.50;99.90
9049;DHT22;4559;47.252;9.592;2022-08-27T15:34:53;24.40;99.90
9049;DHT22;4559;47.252;9.592;2022-08-27T15:37:19;24.30;99.90
9049;DHT22;4559;47.252;9.592;2022-08-27T15:39:44;24.30;99.90
9049;DHT22;4559;47.252;9.592;2022-08-27T15:42:11;24.20;99.90
9049;DHT22;4559;47.252;9.592;2022-08-27T15:44:41;24.20;99.90
9049;DHT22;4559;47.252;9.592;2022-08-27T15:47:08;24.10;99.90
9049;DHT22;4559;47.252;9.592;2022-08-27T15:49:34;24.10;99.90
9049;DHT22;4559;47.252;9.592;2022-08-27T15:51:59;24.10;99.90
9049;DHT22;4559;47.252;9.592;2022-08-27T15:54:26;24.00;99.90
9049;DHT22;4559;47.252;9.592;2022-08-27T15:56:51;24.00;99.90
9049;DHT22;4559;47.252;9.592;2022-08-27T15:59:17;24.00;99.90
9049;DHT22;4559;47.252;9.592;2022-08-27T16:01:43;23.90;99.90
9049;DHT22;4559;47.252;9.592;2022-08-27T16:04:09;23.90;99.90
9049;DHT22;4559;47.252;9.592;2022-08-27T16:06:36;23.90;99.90
9049;DHT22;4559;47.252;9.592;2022-08-27T16:09:03;23.90;99.90
9049;DHT22;4559;47.252;9.592;2022-08-27T16:11:28;23.80;99.90
9049;DHT22;4559;47.252;9.592;2022-08-27T16:13:54;23.80;99.90
9049;DHT22;4559;47.252;9.592;2022-08-27T16:16:24;23.80;99.90
9049;DHT22;4559;47.252;9.592;2022-08-27T16:18:50;23.80;99.90
9049;DHT22;4559;47.252;9.592;2022-08-27T16:21:16;23.70;99.90
9049;DHT22;4559;47.252;9.592;2022-08-27T16:23:42;23.70;99.90
9049;DHT22;4559;47.252;9.592;2022-08-27T16:26:07;23.80;99.90
9049;DHT22;4559;47.252;9.592;2022-08-27T16:28:33;23.70;99.90
9049;DHT22;4559;47.252;9.592;2022-08-27T16:30:59;23.70;99.90
9049;DHT22;4559;47.252;9.592;2022-08-27T16:33:25;23.80;99.90
9049;DHT22;4559;47.252;9.592;2022-08-27T16:35:52;23.80;99.90
9049;DHT22;4559;47.252;9.592;2022-08-27T16:38:17;23.70;99.90
9049;DHT22;4559;47.252;9.592;2022-08-27T16:40:50;23.70;99.90
9049;DHT22;4559;47.252;9.592;2022-08-27T16:43:20;23.60;99.90
9049;DHT22;4559;47.252;9.592;2022-08-27T16:45:48;23.60;99.90
9049;DHT22;4559;47.252;9.592;2022-08-27T16:48:15;23.50;99.90
9049;DHT22;4559;47.252;9.592;2022-08-27T16:50:59;23.50;99.90
9049;DHT22;4559;47.252;9.592;2022-08-27T16:53:25;23.40;99.90
9049;DHT22;4559;47.252;9.592;2022-08-27T16:55:50;23.40;99.90
9049;DHT22;4559;47.252;9.592;2022-08-27T16:58:24;23.30;99.90
9049;DHT22;4559;47.252;9.592;2022-08-27T17:00:54;23.30;99.90
9049;DHT22;4559;47.252;9.592;2022-08-27T17:03:21;23.30;99.90
9049;DHT22;4559;47.252;9.592;2022-08-27T17:05:48;23.20;99.90
9049;DHT22;4559;47.252;9.592;2022-08-27T17:08:18;23.20;99.90
9049;DHT22;4559;47.252;9.592;2022-08-27T17:10:47;23.20;99.90
9049;DHT22;4559;47.252;9.592;2022-08-27T17:13:16;23.10;99.90
9049;DHT22;4559;47.252;9.592;2022-08-27T17:15:42;23.10;99.90
9049;DHT22;4559;47.252;9.592;2022-08-27T17:18:08;23.00;99.90
9049;DHT22;4559;47.252;9.592;2022-08-27T17:20:34;23.00;99.90
9049;DHT22;4559;47.252;9.592;2022-08-27T17:23:01;22.90;99.90
9049;DHT22;4559;47.252;9.592;2022-08-27T17:25:28;22.80;99.90
9049;DHT22;4559;47.252;9.592;2022-08-27T17:27:54;22.80;99.90
9049;DHT22;4559;47.252;9.592;2022-08-27T17:30:19;22.70;99.90
9049;DHT22;4559;47.252;9.592;2022-08-27T17:32:46;22.70;99.90
9049;DHT22;4559;47.252;9.592;2022-08-27T17:35:13;22.70;99.90
9049;DHT22;4559;47.252;9.592;2022-08-27T17:37:39;22.70;99.90
9049;DHT22;4559;47.252;9.592;2022-08-27T17:40:05;22.60;99.90
9049;DHT22;4559;47.252;9.592;2022-08-27T17:42:31;22.60;99.90
9049;DHT22;4559;47.252;9.592;2022-08-27T17:44:57;22.60;99.90
9049;DHT22;4559;47.252;9.592;2022-08-27T17:47:23;22.60;99.90
9049;DHT22;4559;47.252;9.592;2022-08-27T17:49:52;22.60;99.90